WetterOnline ( http://www.wetteronline.de )

Wetter aktuell Regensburg

Aktuelles Wetter: Regensburg/Oberhub (371m)

6-stündlich | Neueste Meldungen
Ortszeit Temperatur Wetter
Mo, 15.10. 14:00 21.7° C wolkenlos
Mo, 15.10. 8:00 11.4° C wolkenlos
Mo, 15.10. 2:00 14.5° C wolkenlos
So, 14.10. 20:00 16.3° C wolkenlos
So, 14.10. 14:00 21.6° C wolkenlos
So, 14.10. 8:00 7.1° C wolkenlos
So, 14.10. 2:00 10.1° C wolkenlos
Sa, 13.10. 20:00 14.9° C wolkenlos
Ortszeit Temperatur Wetter
Mo, 15.10. 17:00 21.0° C wolkenlos
Mo, 15.10. 16:50 21.0° C wolkenlos
Mo, 15.10. 16:40 21.1° C fast wolkenlos
Mo, 15.10. 16:30 21.3° C fast wolkenlos
Mo, 15.10. 16:20 21.3° C fast wolkenlos
Mo, 15.10. 16:10 21.2° C fast wolkenlos
Mo, 15.10. 16:00 21.4° C leicht bewölkt
Mo, 15.10. 15:30 22.2° C fast wolkenlos
Mo, 15.10. 15:00 21.9° C wolkenlos
Mo, 15.10. 14:30 21.7° C wolkenlos
Mo, 15.10. 14:00 21.7° C wolkenlos
Ortszeit Relative Feuchte Sichtweite
Mo, 15.10. 14:00 34% 25 km
Mo, 15.10. 8:00 65% 29 km
Mo, 15.10. 2:00 55% 40 km
So, 14.10. 20:00 55% 27 km
So, 14.10. 14:00 37% 20 km
So, 14.10. 8:00 90% 11 km
So, 14.10. 2:00 87% 11 km
Sa, 13.10. 20:00 68% 17 km
Ortszeit Relative Feuchte Sichtweite
Mo, 15.10. 17:00 39% 30 km
Mo, 15.10. 16:50 39% -
Mo, 15.10. 16:40 38% -
Mo, 15.10. 16:30 38% 20 km
Mo, 15.10. 16:20 38% -
Mo, 15.10. 16:10 37% -
Mo, 15.10. 16:00 36% 22 km
Mo, 15.10. 15:30 35% 30 km
Mo, 15.10. 15:00 35% 20 km
Mo, 15.10. 14:30 35% 25 km
Mo, 15.10. 14:00 34% 25 km
Ortszeit Niederschlagsmenge Niederschlagsart
Mo, 15.10. 14:00 0.0 l/m2 in 6 Std. -
Mo, 15.10. 8:00 0.0 l/m2 in 12 Std. -
Mo, 15.10. 2:00 0.0 l/m2 in 6 Std. -
So, 14.10. 20:00 0.0 l/m2 in 12 Std. -
So, 14.10. 14:00 0.0 l/m2 in 6 Std. -
So, 14.10. 8:00 0.0 l/m2 in 12 Std. -
So, 14.10. 2:00 0.0 l/m2 in 6 Std. -
Sa, 13.10. 20:00 0.0 l/m2 in 12 Std. -
Ortszeit Niederschlagsmenge Niederschlagsart
Mo, 15.10. 17:00 0.0 l/m2 in 1 Std. -
Mo, 15.10. 16:50 keine Meldung -
Mo, 15.10. 16:40 keine Meldung -
Mo, 15.10. 16:30 0.0 l/m2 in 1 Std. -
Mo, 15.10. 16:20 keine Meldung -
Mo, 15.10. 16:10 keine Meldung -
Mo, 15.10. 16:00 0.0 l/m2 in 1 Std. -
Mo, 15.10. 15:30 0.0 l/m2 in 1 Std. -
Mo, 15.10. 15:00 0.0 l/m2 in 1 Std. -
Mo, 15.10. 14:30 0.0 l/m2 in 1 Std. -
Mo, 15.10. 14:00 0.0 l/m2 in 1 Std. -
Ortszeit Stärke Spitze Richtung
km/h Bft. km/h Grad Sektor
Mo, 15.10. 14:00 13 3 26 130° SO
Mo, 15.10. 8:00 9 2 31 150° SO
Mo, 15.10. 2:00 15 3 28 130° SO
So, 14.10. 20:00 4 1 32 170° S
So, 14.10. 14:00 15 3 30 130° SO
So, 14.10. 8:00 6 1 7 350° N
So, 14.10. 2:00 6 1 17 10° N
Sa, 13.10. 20:00 7 2 17 360° N
Ortszeit Stärke Spitze Richtung
km/h Bft. km/h Grad Sektor
Mo, 15.10. 17:00 7 2 22 110° O
Mo, 15.10. 16:50 7 2 - 110° O
Mo, 15.10. 16:40 11 2 - 110° O
Mo, 15.10. 16:30 11 2 22 110° O
Mo, 15.10. 16:20 11 2 - 110° O
Mo, 15.10. 16:10 13 3 - 120° SO
Mo, 15.10. 16:00 13 3 28 110° O
Mo, 15.10. 15:30 11 2 24 120° SO
Mo, 15.10. 15:00 13 3 26 140° SO
Mo, 15.10. 14:30 13 3 26 130° SO
Mo, 15.10. 14:00 13 3 26 130° SO
Ortszeit Untergrenze Bedeckung Gattung
total tief tief mittel hoch
Mo, 15.10. 14:00 - 0/8 0/8 - - -
Mo, 15.10. 8:00 - 0/8 0/8 - - -
Mo, 15.10. 2:00 - 0/8 0/8 - - -
So, 14.10. 20:00 - 0/8 0/8 - - -
So, 14.10. 14:00 - 0/8 0/8 - - -
So, 14.10. 8:00 - 0/8 0/8 - - -
So, 14.10. 2:00 - 0/8 0/8 - - -
Sa, 13.10. 20:00 - 0/8 0/8 - - -
Ortszeit Bedeckungsgrad in Achtel und Wolkenuntergrenze
Mo, 15.10. 17:00 keine Wolken
Mo, 15.10. 16:50 keine Wolken
Mo, 15.10. 16:40 1(7200m)
Mo, 15.10. 16:30 2(7200m)
Mo, 15.10. 16:20 2(7200m)
Mo, 15.10. 16:10 1(7800m) 2(8400m)
Mo, 15.10. 16:00 4(8100m)
Mo, 15.10. 15:30 1(8100m)
Mo, 15.10. 15:00 keine Wolken
Mo, 15.10. 14:30 keine Wolken
Mo, 15.10. 14:00 keine Wolken
Ortszeit Luftdruck NN (hPa) Tendenz (hPa in 3 Std.)
Mo, 15.10. 14:00 1014 - 0,7
Mo, 15.10. 8:00 1016 + 0,6
Mo, 15.10. 2:00 1015 + 0,6
So, 14.10. 20:00 1013 - 0,2
So, 14.10. 14:00 1014 - 1,7
So, 14.10. 8:00 1018 - 0,3
So, 14.10. 2:00 1019 - 0,4
Sa, 13.10. 20:00 1019 - 0,9
Ortszeit Luftdruck NN (hPa) Tendenz (hPa in 3 Std.)
Mo, 15.10. 17:00 1014 - 0,4
Mo, 15.10. 16:50 1014 keine Meldung
Mo, 15.10. 16:40 1014 keine Meldung
Mo, 15.10. 16:30 1014 - 0,4
Mo, 15.10. 16:20 1014 keine Meldung
Mo, 15.10. 16:10 1014 keine Meldung
Mo, 15.10. 16:00 1014 - 0,7
Mo, 15.10. 15:30 1014 - 0,7
Mo, 15.10. 15:00 1014 - 0,9
Mo, 15.10. 14:30 1014 - 1,0
Mo, 15.10. 14:00 1014 - 0,7
Ortszeit Schneehöhe (cm)
Mo, 15.10. 14:00 0
Mo, 15.10. 8:00 0
Mo, 15.10. 2:00 0
So, 14.10. 20:00 0
So, 14.10. 14:00 0
So, 14.10. 8:00 0
So, 14.10. 2:00 0
Sa, 13.10. 20:00 0
Ortszeit Schneehöhe (cm)
Mo, 15.10. 17:00 -
Mo, 15.10. 16:50 -
Mo, 15.10. 16:40 -
Mo, 15.10. 16:30 -
Mo, 15.10. 16:20 -
Mo, 15.10. 16:10 -
Mo, 15.10. 16:00 -
Mo, 15.10. 15:30 -
Mo, 15.10. 15:00 -
Mo, 15.10. 14:30 -
Mo, 15.10. 14:00 0
Link zu dieser Seite / Seite empfehlen

Das Wetter in ...